Terminal Aerodrome Forecast
Issued by NWS Cleveland, OH

Home | Current Version | Previous Version | Graphics & Text | Print | Product List | Glossary On
Versions: 1 2 3 4 5 6 7 8 9 10 11 12 13 14 15 16 17 18 19 20
000
FTUS41 KCLE 250800 AAB
TAFTOL
TAF AMD
KTOL 250839Z 2509/2606 05008KT P6SM -RA OVC040
     FM251000 06005KT P6SM OVC040
     FM251400 08012KT P6SM OVC040
     FM252200 05012KT P6SM SCT040 BKN120
     FM260200 04008KT P6SM SCT120 BKN250=

USA.gov is the U.S. government's official web portal to all federal, state and local government web resources and services.